Terminal Aerodrome Forecast
Issued by NWS San Angelo, TX

Home | Current Version | Previous Version | Text Only | Print | Product List | Glossary On
Versions: 1 2 3 4 5 6 7 8 9 10 11 12 13 14 15 16 17 18 19 20 21 22
638
FTUS44 KSJT 281737
TAFSJT
TAF
KSJT 281737Z 2818/2918 18011G17KT P6SM SCT050
     FM282300 16011KT P6SM VCTS BKN050CB
     FM290500 15008KT P6SM SCT060 BKN120
     FM291100 16007KT P6SM BKN015
     FM291600 17012G18KT P6SM SCT030=

USA.gov is the U.S. government's official web portal to all federal, state and local government web resources and services.